Time;durP1;ratioP1;P1;durP2;ratioP2;P2;SDS_P1;SDS_P2;PMS_P1;PMS_P2;Temp;Humidity;BMP_temperature;BMP_pressure;BME280_temperature;BME280_humidity;BME280_pressure;Samples;Min_cycle;Max_cycle;Signal;HPM_P1;HPM_P2
2022/04/18 00:01:07;;;;;;;34.20;12.88;;;10.10;47.50;;;;;;9177552;19;20482;-69
2022/04/18 00:04:13;;;;;;;26.08;12.63;;;10.10;47.50;;;;;;9182135;19;20018;-70
2022/04/18 00:07:22;;;;;;;26.65;12.85;;;10.10;47.60;;;;;;9178733;19;20512;-69
2022/04/18 00:10:34;;;;;;;25.05;12.90;;;10.10;47.60;;;;;;9180981;19;20043;-69
2022/04/18 00:13:55;;;;;;;27.90;13.68;;;10.00;47.60;;;;;;9179240;19;20018;-70
2022/04/18 00:17:00;;;;;;;26.33;12.57;;;10.00;47.70;;;;;;9179559;19;20676;-70
2022/04/18 00:20:10;;;;;;;33.65;13.50;;;10.00;47.70;;;;;;9174866;19;20030;-70
2022/04/18 00:23:18;;;;;;;26.23;12.52;;;10.00;47.70;;;;;;9173583;19;20022;-68
2022/04/18 00:26:29;;;;;;;29.10;13.02;;;9.90;47.70;;;;;;9173914;19;20018;-69
2022/04/18 00:29:34;;;;;;;29.75;13.15;;;9.90;47.80;;;;;;9171746;19;20096;-68
2022/04/18 00:32:39;;;;;;;30.17;13.18;;;9.90;47.80;;;;;;9170139;19;20019;-69
2022/04/18 00:35:46;;;;;;;26.70;13.00;;;9.90;47.80;;;;;;9178021;19;20086;-69
2022/04/18 00:38:51;;;;;;;24.65;13.82;;;9.80;47.80;;;;;;9176987;19;20018;-69
2022/04/18 00:42:06;;;;;;;24.95;12.68;;;9.80;47.90;;;;;;9179503;19;20018;-69
2022/04/18 00:45:11;;;;;;;;;;;9.80;47.90;;;;;;9179698;19;20023;-68
2022/04/18 00:48:20;;;;;;;29.45;13.55;;;9.80;47.90;;;;;;9174422;19;19974;-69
2022/04/18 00:51:29;;;;;;;32.63;13.45;;;9.70;47.90;;;;;;9174778;19;20015;-67
2022/04/18 00:54:39;;;;;;;25.08;11.88;;;9.70;47.90;;;;;;9176800;19;20029;-68
2022/04/18 00:57:49;;;;;;;26.60;13.65;;;9.70;48.00;;;;;;9178486;19;20352;-70
2022/04/18 01:01:00;;;;;;;26.63;12.98;;;9.70;48.00;;;;;;9181862;19;20018;-68
2022/04/18 01:04:07;;;;;;;26.40;12.48;;;9.60;47.90;;;;;;9185186;19;20014;-69
2022/04/18 01:07:18;;;;;;;23.55;12.50;;;9.60;47.90;;;;;;9182612;19;20026;-69
2022/04/18 01:10:27;;;;;;;30.00;12.93;;;9.60;48.00;;;;;;9184621;19;20023;-69
2022/04/18 01:13:42;;;;;;;26.60;12.10;;;9.60;48.00;;;;;;9184333;19;20090;-68
2022/04/18 01:17:08;;;;;;;28.33;12.63;;;9.50;48.00;;;;;;9182548;19;20018;-68
2022/04/18 01:20:37;;;;;;;27.92;12.25;;;9.50;48.00;;;;;;9181268;19;20018;-68
2022/04/18 01:31:15;;;;;;;23.83;12.05;;;9.50;48.20;;;;;;9180061;19;20022;-68
2022/04/18 01:34:20;;;;;;;24.85;12.32;;;9.40;48.20;;;;;;9184263;19;20015;-67
2022/04/18 01:37:26;;;;;;;31.40;11.95;;;9.40;48.30;;;;;;9184253;19;20014;-69
2022/04/18 01:40:38;;;;;;;25.55;11.07;;;9.40;48.30;;;;;;9183830;19;20017;-69
2022/04/18 01:43:45;;;;;;;26.00;12.63;;;9.40;48.30;;;;;;9185158;19;20023;-68
2022/04/18 01:46:53;;;;;;;25.05;13.05;;;9.40;48.40;;;;;;9183182;19;20073;-68
2022/04/18 01:50:04;;;;;;;23.27;12.45;;;9.30;48.40;;;;;;9182828;19;20022;-68
2022/04/18 01:53:17;;;;;;;27.13;12.55;;;9.30;49.00;;;;;;9179889;19;20015;-69
2022/04/18 01:56:30;;;;;;;27.48;12.70;;;9.30;48.50;;;;;;9183653;19;20037;-68
2022/04/18 01:59:42;;;;;;;26.52;12.70;;;9.20;48.50;;;;;;9183174;19;20014;-67
2022/04/18 02:02:52;;;;;;;25.17;12.50;;;9.20;48.50;;;;;;9182139;19;20026;-68
2022/04/18 02:06:00;;;;;;;24.92;11.77;;;9.20;48.60;;;;;;9182145;19;20022;-67
2022/04/18 02:09:09;;;;;;;23.25;11.38;;;9.20;48.60;;;;;;9178300;19;20018;-67
2022/04/18 02:12:19;;;;;;;23.58;11.77;;;9.10;48.70;;;;;;9182747;19;20025;-67
2022/04/18 02:15:36;;;;;;;26.05;11.20;;;9.10;48.80;;;;;;9181178;19;20026;-68
2022/04/18 02:18:42;;;;;;;25.95;11.45;;;9.10;48.80;;;;;;9180846;19;20120;-67
2022/04/18 02:21:48;;;;;;;25.65;12.35;;;9.00;48.80;;;;;;9181917;19;20010;-67
2022/04/18 02:24:53;;;;;;;25.23;12.05;;;9.00;48.90;;;;;;9183919;19;20010;-68
2022/04/18 02:28:01;;;;;;;24.10;12.75;;;8.90;48.90;;;;;;9179969;19;20086;-68
2022/04/18 02:31:09;;;;;;;24.75;11.68;;;8.90;49.00;;;;;;9178078;19;20015;-68
2022/04/18 02:34:14;;;;;;;25.30;12.07;;;8.90;49.00;;;;;;9182243;19;20022;-68
2022/04/18 02:37:21;;;;;;;25.85;11.70;;;8.80;49.10;;;;;;9183364;19;20052;-68
2022/04/18 02:40:26;;;;;;;30.30;12.80;;;8.80;49.10;;;;;;9182093;19;20508;-68
2022/04/18 02:43:35;;;;;;;26.15;13.10;;;8.70;49.20;;;;;;9180954;19;20042;-68
2022/04/18 02:46:46;;;;;;;;;;;8.70;49.30;;;;;;9181328;19;20018;-68
2022/04/18 02:49:52;;;;;;;26.65;11.65;;;8.70;49.30;;;;;;9177073;19;19919;-69
2022/04/18 02:53:04;;;;;;;26.27;12.02;;;8.60;49.20;;;;;;9181026;19;20496;-68
2022/04/18 02:56:17;;;;;;;23.50;12.40;;;8.60;49.40;;;;;;9180693;19;20025;-68
2022/04/18 02:59:31;;;;;;;30.10;12.43;;;8.60;49.40;;;;;;9182335;19;20014;-67
2022/04/18 03:02:46;;;;;;;27.17;12.55;;;8.50;49.40;;;;;;9180825;19;20059;-69
2022/04/18 03:05:53;;;;;;;25.17;12.07;;;8.50;49.50;;;;;;9181275;19;20011;-68
2022/04/18 03:08:59;;;;;;;25.80;12.55;;;8.40;49.50;;;;;;9177577;19;20492;-68
2022/04/18 03:12:06;;;;;;;26.58;12.50;;;8.40;49.60;;;;;;9179865;19;20018;-67
2022/04/18 03:15:14;;;;;;;25.95;12.18;;;8.40;49.70;;;;;;9179535;19;20010;-67
2022/04/18 03:18:23;;;;;;;27.25;12.50;;;8.30;49.70;;;;;;9180975;19;20335;-67
2022/04/18 03:21:29;;;;;;;23.80;11.57;;;8.30;49.70;;;;;;9178878;19;20023;-67
2022/04/18 03:24:37;;;;;;;25.77;12.25;;;8.30;49.80;;;;;;9180899;19;20022;-67
2022/04/18 03:27:54;;;;;;;32.95;14.13;;;8.20;49.80;;;;;;9180170;19;20010;-68
2022/04/18 03:31:04;;;;;;;30.95;12.98;;;8.20;49.80;;;;;;9175443;19;20021;-68
2022/04/18 03:34:18;;;;;;;24.50;11.95;;;8.10;49.80;;;;;;9179386;19;20022;-66
2022/04/18 03:40:45;;;;;;;29.20;12.63;;;8.10;50.00;;;;;;9178019;19;20030;-66
2022/04/18 03:43:53;;;;;;;27.65;13.25;;;8.10;50.10;;;;;;9180249;19;20022;-66
2022/04/18 03:47:06;;;;;;;29.08;12.75;;;8.00;50.00;;;;;;9176509;19;20019;-66
2022/04/18 03:50:12;;;;;;;31.52;13.95;;;8.00;50.10;;;;;;9178605;19;20014;-67
2022/04/18 03:53:32;;;;;;;28.50;12.30;;;7.90;50.10;;;;;;9178689;19;20011;-68
2022/04/18 03:56:38;;;;;;;27.45;12.18;;;7.90;50.90;;;;;;9179317;19;20398;-69
2022/04/18 03:59:49;;;;;;;27.48;11.48;;;7.80;50.20;;;;;;9178108;19;20026;-67
2022/04/18 04:02:58;;;;;;;23.40;11.82;;;7.80;50.20;;;;;;9178318;19;20014;-67
2022/04/18 04:06:13;;;;;;;27.08;11.88;;;7.80;50.30;;;;;;9177796;19;20019;-66
2022/04/18 04:09:20;;;;;;;27.67;12.55;;;7.70;50.30;;;;;;9174662;19;20402;-67
2022/04/18 04:12:25;;;;;;;27.40;13.23;;;7.70;50.40;;;;;;9177574;19;20014;-67
2022/04/18 04:15:54;;;;;;;31.73;12.60;;;7.70;50.40;;;;;;9176033;19;20021;-67
2022/04/18 04:19:07;;;;;;;30.27;12.60;;;7.60;50.40;;;;;;9177464;19;20015;-69
2022/04/18 04:22:21;;;;;;;27.75;13.13;;;7.60;50.50;;;;;;9180324;19;20074;-67
2022/04/18 04:25:49;;;;;;;29.63;12.63;;;7.60;50.50;;;;;;9177856;19;20019;-66
2022/04/18 04:29:00;;;;;;;29.05;14.13;;;7.50;50.50;;;;;;9175695;19;20019;-67
2022/04/18 04:32:20;;;;;;;32.00;12.95;;;7.50;50.60;;;;;;9177303;19;20014;-67
2022/04/18 04:35:30;;;;;;;28.73;12.70;;;7.50;50.70;;;;;;9185727;19;20015;-69
2022/04/18 04:38:46;;;;;;;29.55;12.63;;;7.50;50.70;;;;;;9186138;19;20014;-67
2022/04/18 04:41:59;;;;;;;27.90;12.95;;;7.40;50.70;;;;;;9185731;19;20047;-67
2022/04/18 04:45:05;;;;;;;30.55;13.35;;;7.40;50.70;;;;;;9185869;19;20015;-67
2022/04/18 04:48:31;;;;;;;26.52;13.70;;;7.40;50.80;;;;;;9185881;19;20009;-68
2022/04/18 04:51:49;;;;;;;27.50;12.93;;;7.40;50.80;;;;;;9186563;19;20023;-67
2022/04/18 04:55:00;;;;;;;32.30;13.90;;;7.40;50.90;;;;;;9186301;19;20018;-68
2022/04/18 04:58:15;;;;;;;28.88;12.55;;;7.30;50.90;;;;;;9185765;19;20022;-68
2022/04/18 05:01:26;;;;;;;35.50;13.35;;;7.30;51.00;;;;;;9186737;19;20023;-67
2022/04/18 05:04:38;;;;;;;28.13;11.80;;;7.30;51.00;;;;;;9188018;19;20014;-68
2022/04/18 05:07:52;;;;;;;30.52;13.32;;;7.30;51.10;;;;;;9185020;19;20390;-67
2022/04/18 05:10:59;;;;;;;29.83;13.05;;;7.30;51.20;;;;;;9180093;19;20023;-67
2022/04/18 05:14:20;;;;;;;25.52;13.48;;;7.30;51.30;;;;;;9183692;19;20007;-67
2022/04/18 05:17:40;;;;;;;28.17;11.85;;;7.30;51.40;;;;;;9184067;19;20094;-66
2022/04/18 05:20:48;;;;;;;;;;;7.30;51.40;;;;;;9185403;19;20050;-66
2022/04/18 05:23:58;;;;;;;24.42;11.32;;;7.20;51.30;;;;;;9183645;19;19918;-67
2022/04/18 05:27:03;;;;;;;29.23;12.90;;;7.20;51.30;;;;;;9185462;19;20043;-67
2022/04/18 05:30:13;;;;;;;26.33;12.32;;;7.20;51.40;;;;;;9179597;19;20014;-68
2022/04/18 05:33:21;;;;;;;29.25;13.68;;;7.20;51.60;;;;;;9183896;19;20033;-66
2022/04/18 05:36:55;;;;;;;27.65;12.48;;;7.20;51.60;;;;;;9183813;19;20019;-67
2022/04/18 05:40:33;;;;;;;28.58;13.52;;;7.20;51.70;;;;;;9182508;19;20077;-66
2022/04/18 05:43:40;;;;;;;26.48;13.13;;;7.20;51.70;;;;;;9182355;19;20047;-66
2022/04/18 05:46:49;;;;;;;31.85;12.93;;;7.20;51.70;;;;;;9184565;19;20352;-67
2022/04/18 05:49:57;;;;;;;30.80;14.15;;;7.20;51.80;;;;;;9183071;19;20022;-67
2022/04/18 05:53:15;;;;;;;27.05;12.43;;;7.30;52.10;;;;;;9183907;19;20010;-68
2022/04/18 05:56:41;;;;;;;31.17;13.65;;;7.30;52.10;;;;;;9183694;19;20010;-68
2022/04/18 06:00:12;;;;;;;28.02;13.00;;;7.50;52.30;;;;;;9183100;19;20675;-68
2022/04/18 06:03:23;;;;;;;26.98;12.48;;;7.60;52.50;;;;;;9182278;19;20014;-68
2022/04/18 06:06:31;;;;;;;23.35;12.40;;;7.70;52.60;;;;;;9183195;19;20018;-68
2022/04/18 06:09:36;;;;;;;26.25;12.18;;;7.90;52.80;;;;;;9180638;19;20508;-67
2022/04/18 06:12:45;;;;;;;28.85;13.05;;;8.10;52.90;;;;;;9184527;19;20015;-69
2022/04/18 06:15:56;;;;;;;26.17;12.50;;;8.20;53.00;;;;;;9183551;19;20029;-68
2022/04/18 06:19:01;;;;;;;25.40;12.52;;;8.40;53.00;;;;;;9184351;19;20018;-67
2022/04/18 06:22:12;;;;;;;27.42;12.70;;;8.60;53.00;;;;;;9183762;19;20010;-67
2022/04/18 06:25:18;;;;;;;26.48;12.85;;;8.80;53.20;;;;;;9183901;19;20074;-68
2022/04/18 06:28:43;;;;;;;26.77;12.70;;;9.10;53.20;;;;;;9182892;19;20037;-68
2022/04/18 06:31:49;;;;;;;26.08;13.07;;;9.30;53.20;;;;;;9178380;19;20344;-69
2022/04/18 06:34:59;;;;;;;25.35;12.18;;;9.60;53.30;;;;;;9178435;19;20030;-69
2022/04/18 06:38:08;;;;;;;28.67;13.40;;;9.90;53.30;;;;;;9182466;19;20016;-70
2022/04/18 06:41:35;;;;;;;26.23;11.95;;;10.10;53.20;;;;;;9181989;19;20484;-68
2022/04/18 06:44:44;;;;;;;23.73;12.82;;;10.40;53.10;;;;;;9183082;19;20013;-69
2022/04/18 06:47:56;;;;;;;28.02;12.63;;;10.60;53.00;;;;;;9184173;19;20485;-68
2022/04/18 06:51:39;;;;;;;27.63;11.40;;;10.90;53.00;;;;;;9180354;19;20018;-68
2022/04/18 06:55:16;;;;;;;23.17;11.50;;;11.10;53.00;;;;;;9179557;19;20015;-69
2022/04/18 06:58:34;;;;;;;23.77;12.02;;;11.40;52.80;;;;;;9182551;19;20058;-69
2022/04/18 07:01:44;;;;;;;22.38;10.80;;;11.60;52.80;;;;;;9183158;19;20029;-68
2022/04/18 07:04:53;;;;;;;23.95;11.73;;;11.80;52.70;;;;;;9182701;19;20021;-69
2022/04/18 07:08:09;;;;;;;22.77;10.60;;;12.10;52.70;;;;;;9181851;19;20014;-68
2022/04/18 07:11:15;;;;;;;20.33;9.68;;;12.30;52.70;;;;;;9179407;19;20478;-68
2022/04/18 07:14:21;;;;;;;22.40;10.65;;;12.60;52.60;;;;;;9180399;19;20015;-71
2022/04/18 07:17:35;;;;;;;18.35;9.30;;;12.70;52.30;;;;;;9181197;19;20031;-69
2022/04/18 07:20:45;;;;;;;22.45;10.68;;;12.90;52.20;;;;;;9181358;19;20026;-69
2022/04/18 07:23:55;;;;;;;21.75;10.57;;;13.10;52.10;;;;;;9180365;19;20055;-70
2022/04/18 07:27:01;;;;;;;19.98;10.23;;;13.30;52.10;;;;;;9181006;19;20104;-69
2022/04/18 07:30:15;;;;;;;21.58;9.55;;;13.50;52.00;;;;;;9174313;19;20328;-69
2022/04/18 07:33:28;;;;;;;21.27;9.30;;;13.80;52.00;;;;;;9180260;19;20037;-71
2022/04/18 07:36:37;;;;;;;18.55;9.48;;;14.00;51.80;;;;;;9179672;19;20583;-70
2022/04/18 07:39:45;;;;;;;17.73;9.95;;;14.20;51.70;;;;;;9179358;19;20065;-69
2022/04/18 07:42:53;;;;;;;15.95;8.82;;;14.40;51.60;;;;;;9178977;19;20030;-70
2022/04/18 07:45:59;;;;;;;17.85;8.35;;;14.50;51.40;;;;;;9179459;19;20011;-70
2022/04/18 07:49:14;;;;;;;23.70;8.95;;;14.80;51.40;;;;;;9180511;19;20010;-71
2022/04/18 07:52:25;;;;;;;;;;;14.90;51.10;;;;;;9182580;19;20419;-70
2022/04/18 07:55:42;;;;;;;12.18;7.05;;;15.10;51.70;;;;;;9175007;19;20332;-69
2022/04/18 07:58:47;;;;;;;15.02;7.80;;;15.20;50.90;;;;;;9173874;19;20053;-69
2022/04/18 08:01:59;;;;;;;15.20;7.65;;;15.40;50.80;;;;;;9172127;19;20094;-70
2022/04/18 08:05:36;;;;;;;13.85;8.27;;;15.60;50.70;;;;;;9171258;19;20622;-69
2022/04/18 08:08:45;;;;;;;15.25;8.88;;;15.70;50.50;;;;;;9172284;19;20355;-71
2022/04/18 08:11:50;;;;;;;15.48;7.68;;;15.90;50.40;;;;;;9172353;19;20483;-71
2022/04/18 08:15:03;;;;;;;17.15;7.85;;;16.00;50.20;;;;;;9171662;19;20026;-70
2022/04/18 08:18:08;;;;;;;16.92;7.95;;;16.10;50.10;;;;;;9178928;19;20526;-71
2022/04/18 08:21:30;;;;;;;14.93;7.97;;;16.30;50.10;;;;;;9176959;19;20010;-71
2022/04/18 08:24:35;;;;;;;12.05;6.80;;;16.40;50.00;;;;;;9174115;19;20018;-71
2022/04/18 08:27:59;;;;;;;12.82;6.15;;;16.60;50.10;;;;;;9171874;19;20019;-72
2022/04/18 08:31:14;;;;;;;12.10;4.90;;;16.70;49.90;;;;;;9167305;19;20018;-70
2022/04/18 08:34:38;;;;;;;16.77;5.72;;;16.90;49.70;;;;;;9172770;19;20018;-71
2022/04/18 08:37:48;;;;;;;12.27;5.88;;;17.10;49.50;;;;;;9171320;19;20132;-71
2022/04/18 08:41:10;;;;;;;10.97;6.13;;;17.30;49.20;;;;;;9172155;19;20015;-72
2022/04/18 08:44:18;;;;;;;10.70;5.38;;;17.50;49.00;;;;;;9171032;19;20025;-72
2022/04/18 08:54:14;;;;;;;14.68;6.28;;;18.00;48.50;;;;;;9170451;19;20025;-72
2022/04/18 08:57:24;;;;;;;12.63;5.38;;;18.10;48.00;;;;;;9170456;19;20011;-71
2022/04/18 09:00:32;;;;;;;11.68;5.30;;;18.20;48.00;;;;;;9170095;19;20015;-70
2022/04/18 09:03:57;;;;;;;11.13;6.00;;;18.40;47.80;;;;;;9174150;19;20015;-72
2022/04/18 09:07:13;;;;;;;15.30;6.15;;;18.50;47.60;;;;;;9170878;19;20014;-70
2022/04/18 09:10:30;;;;;;;12.50;5.13;;;18.60;47.60;;;;;;9171005;19;20063;-68
2022/04/18 09:13:44;;;;;;;11.13;5.72;;;18.80;47.50;;;;;;9174540;19;20365;-70
2022/04/18 09:16:57;;;;;;;14.23;6.68;;;18.90;47.30;;;;;;9174829;19;20022;-71
2022/04/18 09:20:24;;;;;;;10.25;5.30;;;19.10;47.30;;;;;;9181791;19;20486;-72
2022/04/18 09:23:38;;;;;;;15.88;5.63;;;19.30;47.20;;;;;;9174760;19;20398;-69
2022/04/18 09:27:09;;;;;;;;;;;19.50;47.00;;;;;;9177939;19;20793;-70
2022/04/18 09:30:19;;;;;;;11.65;6.10;;;19.60;47.00;;;;;;9172569;19;19955;-70
2022/04/18 09:33:42;;;;;;;11.40;6.05;;;19.80;47.20;;;;;;9177374;19;20015;-73
2022/04/18 09:36:48;;;;;;;11.70;6.25;;;19.90;46.90;;;;;;9173914;19;20045;-74
2022/04/18 09:39:55;;;;;;;15.45;5.38;;;20.10;46.80;;;;;;9176327;19;20502;-73
2022/04/18 09:43:04;;;;;;;10.57;5.22;;;20.20;46.50;;;;;;9173220;19;20029;-69
2022/04/18 09:46:12;;;;;;;11.70;5.75;;;20.30;46.40;;;;;;9168576;19;20015;-69
2022/04/18 09:49:24;;;;;;;;;;;20.40;46.30;;;;;;9171208;19;20786;-69
2022/04/18 09:52:38;;;;;;;14.48;5.07;;;20.60;46.20;;;;;;9170531;19;20007;-73
2022/04/18 09:55:47;;;;;;;12.20;5.18;;;20.70;46.30;;;;;;9173662;19;20031;-72
2022/04/18 09:58:58;;;;;;;11.10;5.05;;;20.80;46.00;;;;;;9169891;19;20030;-70
2022/04/18 10:02:16;;;;;;;10.15;5.50;;;21.00;45.90;;;;;;9170416;19;20030;-67
2022/04/18 10:05:22;;;;;;;12.15;5.55;;;21.10;45.60;;;;;;9170433;19;20014;-68
2022/04/18 10:08:28;;;;;;;8.48;5.05;;;21.20;45.40;;;;;;9170309;19;20014;-68
2022/04/18 10:11:33;;;;;;;8.85;4.70;;;21.30;45.20;;;;;;9168654;19;20031;-70
2022/04/18 10:14:43;;;;;;;10.40;5.22;;;21.40;45.00;;;;;;9167320;19;20007;-69
2022/04/18 10:17:49;;;;;;;10.02;5.55;;;21.50;44.90;;;;;;9167713;19;20015;-70
2022/04/18 10:21:13;;;;;;;11.63;5.50;;;21.60;44.80;;;;;;9166683;19;20090;-70
2022/04/18 10:24:44;;;;;;;8.43;4.70;;;21.70;44.50;;;;;;9170700;19;20021;-73
2022/04/18 10:28:05;;;;;;;9.82;4.38;;;21.80;44.50;;;;;;9166667;19;20047;-69
2022/04/18 10:31:20;;;;;;;6.63;3.58;;;22.00;44.40;;;;;;9165936;19;20340;-69
2022/04/18 10:34:31;;;;;;;7.00;3.90;;;22.00;44.30;;;;;;9171346;19;20015;-70
2022/04/18 10:37:45;;;;;;;6.80;3.60;;;22.20;44.20;;;;;;9172823;19;20022;-70
2022/04/18 10:41:14;;;;;;;8.88;3.80;;;22.30;44.10;;;;;;9173639;19;20011;-70
2022/04/18 10:44:19;;;;;;;8.48;3.65;;;22.40;43.80;;;;;;9171601;19;20024;-68
2022/04/18 10:47:28;;;;;;;8.13;3.10;;;22.50;43.50;;;;;;9166274;19;20051;-68
2022/04/18 10:50:37;;;;;;;5.30;3.60;;;22.50;43.20;;;;;;9169485;19;20018;-69
2022/04/18 10:53:42;;;;;;;6.00;3.13;;;22.60;42.90;;;;;;9174631;19;20011;-71
2022/04/18 10:56:49;;;;;;;8.55;3.47;;;22.70;42.80;;;;;;9178527;19;20018;-71
2022/04/18 10:59:54;;;;;;;10.77;3.90;;;22.70;42.60;;;;;;9172765;19;20019;-69
2022/04/18 11:03:02;;;;;;;7.22;3.65;;;22.80;42.50;;;;;;9168865;19;20018;-70
2022/04/18 11:06:10;;;;;;;5.13;3.42;;;22.90;42.20;;;;;;9175579;19;20014;-71
2022/04/18 11:09:19;;;;;;;5.88;3.47;;;22.90;42.00;;;;;;9173080;19;20047;-71
2022/04/18 11:12:24;;;;;;;6.32;3.25;;;23.00;42.00;;;;;;9171223;19;20475;-70
2022/04/18 11:15:29;;;;;;;4.95;3.28;;;23.10;42.50;;;;;;9173980;19;20051;-71
2022/04/18 11:18:42;;;;;;;6.18;3.33;;;23.10;41.60;;;;;;9172576;19;20022;-72
2022/04/18 11:22:10;;;;;;;4.57;3.65;;;23.10;41.40;;;;;;9177979;19;20034;-72
2022/04/18 11:25:15;;;;;;;5.72;3.42;;;23.20;41.10;;;;;;9177855;19;20018;-72
2022/04/18 11:28:21;;;;;;;6.88;3.65;;;23.30;41.40;;;;;;9180828;19;20018;-71
2022/04/18 11:31:30;;;;;;;14.32;4.03;;;23.30;41.20;;;;;;9172235;19;20051;-69
2022/04/18 11:34:39;;;;;;;6.70;3.53;;;23.40;41.10;;;;;;9176629;19;20085;-71
2022/04/18 11:37:46;;;;;;;4.53;3.03;;;23.50;40.80;;;;;;9173989;19;20018;-69
2022/04/18 11:40:51;;;;;;;4.82;3.40;;;23.50;40.70;;;;;;9171577;19;20487;-68
2022/04/18 11:43:59;;;;;;;4.45;3.10;;;23.60;40.60;;;;;;9172999;19;20022;-68
2022/04/18 11:47:11;;;;;;;7.10;4.05;;;23.60;40.40;;;;;;9174470;19;20025;-68
2022/04/18 11:50:21;;;;;;;5.25;3.20;;;23.60;40.30;;;;;;9172079;19;20980;-67
2022/04/18 11:53:33;;;;;;;6.57;3.58;;;23.70;40.20;;;;;;9174927;19;20094;-68
2022/04/18 11:56:40;;;;;;;7.13;3.58;;;23.70;39.90;;;;;;9171989;19;20021;-67
2022/04/18 11:59:45;;;;;;;5.05;3.35;;;23.70;39.90;;;;;;9172665;19;20518;-68
2022/04/18 12:09:29;;;;;;;10.05;3.80;;;23.70;39.70;;;;;;9170353;19;20010;-68
2022/04/18 12:12:34;;;;;;;4.55;3.22;;;23.80;39.80;;;;;;9173313;19;20015;-69
2022/04/18 12:15:40;;;;;;;6.80;3.55;;;23.80;39.70;;;;;;9174725;19;20010;-68
2022/04/18 12:18:45;;;;;;;6.70;3.58;;;23.90;39.60;;;;;;9177424;19;20064;-69
2022/04/18 12:21:56;;;;;;;10.30;3.83;;;23.80;39.50;;;;;;9168874;19;20613;-69
2022/04/18 12:25:01;;;;;;;6.40;3.83;;;23.90;39.50;;;;;;9168609;19;20014;-68
2022/04/18 12:28:08;;;;;;;6.70;3.97;;;23.90;39.80;;;;;;9174400;19;20018;-68
2022/04/18 12:31:14;;;;;;;6.78;3.95;;;23.80;39.20;;;;;;9167813;19;20018;-69
2022/04/18 12:34:25;;;;;;;5.35;3.53;;;23.80;39.20;;;;;;9171132;19;20349;-70
2022/04/18 12:37:33;;;;;;;6.05;3.65;;;23.80;39.10;;;;;;9172072;19;20018;-70
2022/04/18 12:40:40;;;;;;;6.70;4.05;;;23.80;38.90;;;;;;9172703;19;20463;-70
2022/04/18 12:43:45;;;;;;;7.13;4.10;;;23.80;39.00;;;;;;9172991;19;20037;-70
2022/04/18 12:46:50;;;;;;;8.32;3.53;;;23.80;39.00;;;;;;9172790;19;20026;-70
2022/04/18 12:50:09;;;;;;;5.95;3.15;;;23.80;38.90;;;;;;9172649;19;20047;-69
2022/04/18 12:53:17;;;;;;;5.72;2.92;;;23.80;38.90;;;;;;9173742;19;20003;-69
2022/04/18 12:56:25;;;;;;;5.43;3.53;;;23.80;38.90;;;;;;9180317;19;20051;-70
2022/04/18 12:59:32;;;;;;;6.00;3.30;;;23.80;38.80;;;;;;9178908;19;20026;-68
2022/04/18 13:02:37;;;;;;;5.97;3.20;;;23.80;38.80;;;;;;9183340;19;20532;-68
2022/04/18 13:05:47;;;;;;;5.40;3.20;;;23.70;38.60;;;;;;9180284;19;20030;-68
2022/04/18 13:08:59;;;;;;;4.75;3.30;;;23.70;38.60;;;;;;9178149;19;20018;-68
2022/04/18 13:12:05;;;;;;;4.63;2.83;;;23.70;38.40;;;;;;9182314;19;20361;-68
2022/04/18 13:15:12;;;;;;;4.72;3.03;;;23.60;38.30;;;;;;9178452;19;20487;-68
2022/04/18 13:18:22;;;;;;;6.30;3.25;;;23.60;38.30;;;;;;9182081;19;20014;-69
2022/04/18 13:21:28;;;;;;;9.77;3.22;;;23.60;38.20;;;;;;9181726;19;20777;-70
2022/04/18 13:24:36;;;;;;;5.60;3.28;;;23.50;38.20;;;;;;9181298;19;20110;-71
2022/04/18 13:27:42;;;;;;;5.30;3.17;;;23.50;38.10;;;;;;9181828;19;20011;-70
2022/04/18 13:30:47;;;;;;;6.50;3.33;;;23.50;38.10;;;;;;9175206;19;20019;-70
2022/04/18 13:33:53;;;;;;;4.97;3.22;;;23.50;38.00;;;;;;9176716;19;20022;-70
2022/04/18 13:36:59;;;;;;;4.53;3.22;;;23.50;38.00;;;;;;9182422;19;20045;-72
2022/04/18 13:40:08;;;;;;;7.18;4.25;;;23.40;37.90;;;;;;9179995;19;20026;-71
2022/04/18 13:43:14;;;;;;;4.72;3.25;;;23.40;37.90;;;;;;9175918;19;20037;-70
2022/04/18 13:46:19;;;;;;;6.10;3.67;;;23.40;37.90;;;;;;9181914;19;20013;-71
2022/04/18 13:49:24;;;;;;;7.65;3.78;;;23.40;37.90;;;;;;9178809;19;20505;-73
2022/04/18 13:52:29;;;;;;;8.00;3.53;;;23.30;37.70;;;;;;9182057;19;20022;-71
2022/04/18 13:55:37;;;;;;;6.75;2.97;;;23.20;37.70;;;;;;9182321;19;20483;-71
2022/04/18 13:58:42;;;;;;;9.05;3.10;;;23.20;37.80;;;;;;9188206;19;20055;-70
2022/04/18 14:01:48;;;;;;;6.53;3.00;;;23.20;37.90;;;;;;9185936;19;20026;-70
2022/04/18 14:04:53;;;;;;;4.43;2.95;;;23.20;37.80;;;;;;9183824;19;20010;-73
2022/04/18 14:07:58;;;;;;;4.30;2.92;;;23.20;37.90;;;;;;9185371;19;20015;-72
2022/04/18 14:11:06;;;;;;;5.88;3.33;;;23.20;37.80;;;;;;9185623;19;20463;-70
2022/04/18 14:20:20;;;;;;;7.40;3.28;;;23.20;37.70;;;;;;9184673;19;20011;-70
2022/04/18 14:20:55;;;;;;;5.88;3.47;;;23.20;37.70;;;;;;9176865;19;20771;-72
2022/04/18 14:24:03;;;;;;;5.82;3.63;;;23.10;37.60;;;;;;9174437;19;20026;-71
2022/04/18 14:27:11;;;;;;;4.90;3.00;;;23.10;37.50;;;;;;9178225;19;20352;-71
2022/04/18 14:30:17;;;;;;;7.57;3.63;;;23.00;37.60;;;;;;9174903;19;20015;-71
2022/04/18 14:33:22;;;;;;;4.32;3.35;;;23.00;37.70;;;;;;9180917;19;20116;-71
2022/04/18 14:36:27;;;;;;;9.93;3.90;;;23.00;37.70;;;;;;9184394;19;20014;-73
2022/04/18 14:39:33;;;;;;;6.38;3.33;;;23.00;37.80;;;;;;9184330;19;20020;-73
2022/04/18 14:42:43;;;;;;;7.15;3.88;;;23.00;37.70;;;;;;9177360;19;20023;-69
2022/04/18 14:45:49;;;;;;;6.53;4.10;;;22.90;37.70;;;;;;9171119;19;20048;-69
2022/04/18 14:48:56;;;;;;;6.20;3.47;;;22.90;37.70;;;;;;9176370;19;20601;-70
2022/04/18 14:52:01;;;;;;;5.90;3.97;;;22.90;37.60;;;;;;9174238;19;20015;-69
2022/04/18 14:55:07;;;;;;;7.60;3.60;;;22.80;37.70;;;;;;9169634;19;20053;-70
2022/04/18 14:58:16;;;;;;;5.03;3.47;;;22.80;37.80;;;;;;9174839;19;20021;-69
2022/04/18 15:01:23;;;;;;;10.70;4.05;;;22.70;37.60;;;;;;9175700;19;20388;-70
2022/04/18 15:04:30;;;;;;;8.40;4.07;;;22.60;37.60;;;;;;9179420;19;20017;-70
2022/04/18 15:07:35;;;;;;;7.28;3.80;;;22.60;37.60;;;;;;9176038;19;20015;-70
2022/04/18 15:10:40;;;;;;;10.35;4.95;;;22.60;37.60;;;;;;9179044;19;20025;-70
2022/04/18 15:13:48;;;;;;;6.22;3.92;;;22.50;38.20;;;;;;9172155;19;20022;-70
2022/04/18 15:16:53;;;;;;;7.95;3.25;;;22.40;37.50;;;;;;9163871;19;20098;-70
2022/04/18 15:19:59;;;;;;;5.55;3.58;;;22.30;37.60;;;;;;9167356;19;20047;-71
2022/04/18 15:23:04;;;;;;;5.60;3.10;;;22.20;37.60;;;;;;9168854;19;20018;-69
2022/04/18 15:26:10;;;;;;;5.72;3.78;;;22.20;37.70;;;;;;9166577;19;20018;-70
2022/04/18 15:29:18;;;;;;;6.07;3.83;;;22.10;37.70;;;;;;9166164;19;20026;-71
2022/04/18 15:32:22;;;;;;;6.03;3.70;;;22.10;37.70;;;;;;9167543;19;20015;-72
2022/04/18 15:35:27;;;;;;;6.47;3.78;;;22.00;37.70;;;;;;9165158;19;20022;-70
2022/04/18 15:38:35;;;;;;;8.20;3.50;;;21.90;37.60;;;;;;9164586;19;20565;-71
2022/04/18 15:41:40;;;;;;;5.05;3.13;;;21.90;37.70;;;;;;9166481;19;20487;-70
2022/04/18 15:44:48;;;;;;;5.60;3.40;;;21.80;37.80;;;;;;9167194;19;21587;-69
2022/04/18 15:47:54;;;;;;;5.40;2.92;;;21.80;37.80;;;;;;9166867;19;20024;-71
2022/04/18 15:50:59;;;;;;;5.13;2.83;;;21.70;37.80;;;;;;9166918;19;20018;-71
2022/04/18 15:54:05;;;;;;;4.25;2.80;;;21.70;37.80;;;;;;9165644;19;20022;-71
2022/04/18 15:57:10;;;;;;;5.18;3.17;;;21.60;37.70;;;;;;9166791;19;20138;-71
2022/04/18 16:00:18;;;;;;;4.40;2.55;;;21.60;37.70;;;;;;9165699;19;20872;-70
2022/04/18 16:03:25;;;;;;;3.78;2.50;;;21.60;37.70;;;;;;9165070;19;20014;-66
2022/04/18 16:06:30;;;;;;;5.20;3.08;;;21.50;37.60;;;;;;9169356;19;20689;-69
2022/04/18 16:09:35;;;;;;;3.33;2.70;;;21.50;37.70;;;;;;9167540;19;20986;-69
2022/04/18 16:12:40;;;;;;;4.68;2.72;;;21.40;37.70;;;;;;9172262;19;20022;-67
2022/04/18 16:15:48;;;;;;;5.97;2.92;;;21.40;37.70;;;;;;9167486;19;20014;-66
2022/04/18 16:18:53;;;;;;;5.43;3.15;;;21.30;37.60;;;;;;9171545;19;20010;-67
2022/04/18 16:21:58;;;;;;;3.40;2.58;;;21.20;37.70;;;;;;9170265;19;20031;-67
2022/04/18 16:25:03;;;;;;;5.32;2.50;;;21.20;37.70;;;;;;9171453;19;20021;-66
2022/04/18 16:28:08;;;;;;;6.05;2.63;;;21.20;37.80;;;;;;9174544;19;20038;-66
2022/04/18 16:34:47;;;;;;;5.45;3.13;;;21.10;37.80;;;;;;9177311;19;20098;-66
2022/04/18 16:37:52;;;;;;;5.15;3.17;;;21.10;37.90;;;;;;9179529;19;20015;-66
2022/04/18 16:47:34;;;;;;;6.75;3.08;;;20.90;37.90;;;;;;9179668;19;20364;-68
2022/04/18 16:50:39;;;;;;;6.32;3.08;;;20.80;37.90;;;;;;9176965;19;20023;-67
2022/04/18 16:53:44;;;;;;;4.38;2.80;;;20.80;37.90;;;;;;9176078;19;20475;-67
2022/04/18 16:57:05;;;;;;;6.05;2.72;;;20.80;38.00;;;;;;9174321;19;20015;-69
2022/04/18 17:00:12;;;;;;;4.50;2.80;;;20.70;38.00;;;;;;9176005;19;21059;-67